Hankinson, North Dakota
Current Conditions -  °F | °C
As of 10:15 PM on Tuesday 21 Oct 2014 (Local Time) from KBWP Reporting Station
Clear Clear  
Wind Chill: 54°   Ceiling: Unl
Heat Index: 54°   Visibility: 10mi
Dew Point: 37°   Wind: 18mph
Humidity: 54%   Direction: 150°SSE
Pressure: 29.96"   Gusts: 25mph
Location:  46.07°N, 96.9°W
Report Text: KBWP 220315Z AUTO 15016G22KT 10SM CLR 12/03 A2996 RMK AO1
Loading
Personal Weather Stations






























Interactive Weather Map
Tropical Storm Tracking
New forecast layout! Learn more

10-Day Weather Forecast

Advertisements
Track Severe Weather on mobile